createdAt,value
2023-01-10T00:00:23.731Z,96470.50
2023-01-10T00:02:52.975Z,96468.00
2023-01-10T00:05:21.832Z,96467.72
2023-01-10T00:07:50.475Z,96475.25
2023-01-10T00:10:19.109Z,96475.25
2023-01-10T00:13:06.490Z,96464.81
2023-01-10T00:15:35.242Z,96464.81
2023-01-10T00:18:03.779Z,96466.94
2023-01-10T00:20:32.928Z,96467.94
2023-01-10T00:23:01.156Z,96468.84
2023-01-10T00:25:29.688Z,96472.63
2023-01-10T00:28:02.750Z,96484.00
2023-01-10T00:30:33.750Z,96482.16
2023-01-10T00:33:03.647Z,96484.00
2023-01-10T00:35:31.953Z,96486.19
2023-01-10T00:38:05.862Z,96490.50
2023-01-10T00:40:34.762Z,96488.41
2023-01-10T00:43:21.721Z,96493.25
2023-01-10T00:45:50.279Z,96501.59
2023-01-10T00:48:18.822Z,96507.81
2023-01-10T00:50:47.366Z,96499.41
2023-01-10T00:53:15.930Z,96513.66
2023-01-10T00:55:44.469Z,96512.06
2023-01-10T00:58:15.179Z,96516.66
2023-01-10T01:00:46.768Z,96518.03
2023-01-10T01:03:15.693Z,96523.25
2023-01-10T01:05:45.968Z,96529.47
2023-01-10T01:08:16.698Z,96531.13
2023-01-10T01:10:45.568Z,96535.81
2023-01-10T01:13:18.614Z,96546.94
2023-01-10T01:15:47.744Z,96552.63
2023-01-10T01:18:19.354Z,96559.91
2023-01-10T01:20:48.312Z,96566.41
2023-01-10T01:23:17.031Z,96572.06
2023-01-10T01:25:45.588Z,96582.06
2023-01-10T01:28:15.645Z,96582.28
2023-01-10T01:30:44.206Z,96583.53
2023-01-10T01:33:12.817Z,96586.56
2023-01-10T01:35:43.732Z,96586.28
2023-01-10T01:38:12.725Z,96599.34
2023-01-10T01:40:41.891Z,96601.56
2023-01-10T01:43:25.455Z,96608.28
2023-01-10T01:45:55.412Z,96615.66
2023-01-10T01:48:37.613Z,96608.16
2023-01-10T01:51:13.625Z,96607.06
2023-01-10T01:53:48.327Z,96604.31
2023-01-10T01:56:22.900Z,96616.78
2023-01-10T01:59:00.396Z,96615.66
2023-01-10T02:01:32.365Z,96624.25
2023-01-10T02:04:12.056Z,96629.16
2023-01-10T02:06:41.861Z,96625.34
2023-01-10T02:09:19.587Z,96625.63
2023-01-10T02:11:48.046Z,96627.81
2023-01-10T02:14:18.641Z,96631.84
2023-01-10T02:16:47.296Z,96640.50
2023-01-10T02:19:32.349Z,96638.31
2023-01-10T02:22:38.509Z,96645.31
2023-01-10T02:25:55.357Z,96649.56
2023-01-10T02:29:14.803Z,96651.69
2023-01-10T02:32:42.004Z,96651.13
2023-01-10T02:35:40.512Z,96661.88
2023-01-10T02:38:22.724Z,96656.72
2023-01-10T02:41:02.489Z,96657.47
2023-01-10T02:43:36.682Z,96661.28
2023-01-10T02:46:12.294Z,96664.22
2023-01-10T02:48:41.973Z,96666.38
2023-01-10T02:51:19.723Z,96672.84
2023-01-10T02:53:52.465Z,96677.38
2023-01-10T02:57:29.120Z,96683.09
2023-01-10T03:00:27.759Z,96684.59
2023-01-10T03:03:33.151Z,96691.31
2023-01-10T03:06:19.935Z,96699.13
2023-01-10T03:08:57.470Z,96704.31
2023-01-10T03:11:42.299Z,96700.88
2023-01-10T03:14:17.339Z,96698.44
2023-01-10T03:16:50.715Z,96710.28
2023-01-10T03:19:24.564Z,96710.03
2023-01-10T03:21:59.261Z,96716.53
2023-01-10T03:24:35.175Z,96725.47
2023-01-10T03:27:10.773Z,96731.38
2023-01-10T03:29:46.681Z,96733.53
2023-01-10T03:32:20.333Z,96738.41
2023-01-10T03:34:49.235Z,96751.09
2023-01-10T03:37:27.730Z,96760.31
2023-01-10T03:40:04.616Z,96755.47
2023-01-10T03:43:06.186Z,96766.00
2023-01-10T03:45:49.564Z,96766.31
2023-01-10T03:48:22.073Z,96767.63
2023-01-10T03:50:52.292Z,96771.69
2023-01-10T03:53:22.220Z,96776.03
2023-01-10T03:55:50.921Z,96779.00
2023-01-10T03:58:21.820Z,96790.91
2023-01-10T04:00:50.700Z,96796.31
2023-01-10T04:03:19.366Z,96802.25
2023-01-10T04:05:47.951Z,96801.44
2023-01-10T04:08:16.527Z,96796.84
2023-01-10T04:10:46.162Z,96808.72
2023-01-10T04:13:14.707Z,96813.88
2023-01-10T04:15:43.256Z,96807.69
2023-01-10T04:18:13.031Z,96815.78
2023-01-10T04:20:41.696Z,96827.91
2023-01-10T04:23:10.240Z,96827.91
2023-01-10T04:25:38.806Z,96833.59
2023-01-10T04:28:08.601Z,96837.41
2023-01-10T04:30:37.238Z,96846.28
2023-01-10T04:33:07.260Z,96851.69
2023-01-10T04:35:35.950Z,96853.81
2023-01-10T04:38:04.667Z,96851.69
2023-01-10T04:40:33.269Z,96852.50
2023-01-10T04:43:01.836Z,96859.78
2023-01-10T04:45:31.472Z,96867.09
2023-01-10T04:48:00.230Z,96865.72
2023-01-10T04:50:29.116Z,96875.44
2023-01-10T04:52:57.365Z,96872.97
2023-01-10T04:55:25.932Z,96883.78
2023-01-10T04:57:54.540Z,96893.00
2023-01-10T05:00:23.285Z,96890.81
2023-01-10T05:02:57.352Z,96895.97
2023-01-10T05:05:26.232Z,96898.97
2023-01-10T05:07:54.496Z,96902.75
2023-01-10T05:10:23.049Z,96909.25
2023-01-10T05:12:51.643Z,96916.53
2023-01-10T05:15:21.080Z,96925.97
2023-01-10T05:17:51.160Z,96931.09
2023-01-10T05:20:20.935Z,96940.81
2023-01-10T05:22:49.625Z,96932.94
2023-01-10T05:25:18.201Z,96931.00
2023-01-10T05:27:46.777Z,96938.03
2023-01-10T05:30:15.751Z,96949.41
2023-01-10T05:32:44.351Z,96961.03
2023-01-10T05:35:12.987Z,96957.00
2023-01-10T05:37:42.785Z,96961.59
2023-01-10T05:40:12.717Z,96968.34
2023-01-10T05:42:41.357Z,96969.41
2023-01-10T05:45:11.036Z,96972.66
2023-01-10T05:47:39.694Z,96973.47
2023-01-10T05:50:09.247Z,96979.38
2023-01-10T05:52:37.558Z,96984.28
2023-01-10T05:55:08.288Z,96994.81
2023-01-10T05:57:36.876Z,96986.97
2023-01-10T06:00:07.526Z,97001.56
2023-01-10T06:02:40.349Z,97010.50
2023-01-10T06:05:09.764Z,97018.84
2023-01-10T06:07:38.940Z,97024.28
2023-01-10T06:10:09.685Z,97030.00
2023-01-10T06:12:40.703Z,97035.41
2023-01-10T06:15:10.937Z,97049.97
2023-01-10T06:17:39.528Z,97050.47
2023-01-10T06:20:09.043Z,97049.13
2023-01-10T06:22:37.347Z,97055.31
2023-01-10T06:25:07.228Z,97060.16
2023-01-10T06:27:36.945Z,97073.69
2023-01-10T06:30:06.241Z,97075.06
2023-01-10T06:32:34.834Z,97075.59
2023-01-10T06:35:03.488Z,97083.72
2023-01-10T06:37:32.499Z,97097.19
2023-01-10T06:40:00.916Z,97099.88
2023-01-10T06:42:29.574Z,97109.88
2023-01-10T06:44:59.275Z,97118.28
2023-01-10T06:47:28.108Z,97109.34
2023-01-10T06:49:56.707Z,97117.44
2023-01-10T06:52:24.921Z,97128.78
2023-01-10T06:54:54.099Z,97131.22
2023-01-10T06:57:22.828Z,97136.38
2023-01-10T06:59:52.007Z,97143.13
2023-01-10T07:02:21.770Z,97150.19
2023-01-10T07:04:50.363Z,97162.09
2023-01-10T07:07:18.945Z,97167.53
2023-01-10T07:09:47.540Z,97174.81
2023-01-10T07:12:16.149Z,97178.88
2023-01-10T07:14:44.703Z,97192.41
2023-01-10T07:17:13.270Z,97202.94
2023-01-10T07:19:42.830Z,97201.84
2023-01-10T07:22:12.340Z,97210.50
2023-01-10T07:24:40.880Z,97212.66
2023-01-10T07:27:09.454Z,97229.41
2023-01-10T07:29:37.997Z,97224.00
2023-01-10T07:32:07.664Z,97227.81
2023-01-10T07:34:36.237Z,97238.91
2023-01-10T07:37:05.821Z,97248.91
2023-01-10T07:39:34.418Z,97249.69
2023-01-10T07:42:03.067Z,97250.25
2023-01-10T07:44:33.424Z,97252.13
2023-01-10T07:47:02.027Z,97257.28
2023-01-10T07:49:30.649Z,97255.63
2023-01-10T07:51:59.171Z,97261.03
2023-01-10T07:54:28.808Z,97271.31
2023-01-10T07:56:57.326Z,97273.75
2023-01-10T07:59:25.993Z,97285.63
2023-01-10T08:01:54.490Z,97299.72
2023-01-10T08:04:22.999Z,97289.16
2023-01-10T08:06:51.685Z,97298.34
2023-01-10T08:09:19.930Z,97303.75
2023-01-10T08:11:49.689Z,97302.13
2023-01-10T08:14:17.943Z,97321.31
2023-01-10T08:16:46.539Z,97319.72
2023-01-10T08:19:17.917Z,97324.31
2023-01-10T08:21:47.555Z,97325.66
2023-01-10T08:24:16.122Z,97329.97
2023-01-10T08:26:44.725Z,97332.16
2023-01-10T08:29:14.287Z,97336.44
2023-01-10T08:31:42.866Z,97337.00
2023-01-10T08:34:11.098Z,97342.16
2023-01-10T08:36:39.624Z,97348.34
2023-01-10T08:39:08.380Z,97348.91
2023-01-10T08:41:39.520Z,97356.19
2023-01-10T08:44:07.943Z,97351.59
2023-01-10T08:46:38.318Z,97355.94
2023-01-10T08:49:07.133Z,97355.13
2023-01-10T08:51:35.448Z,97365.91
2023-01-10T08:54:04.284Z,97364.28
2023-01-10T08:56:32.934Z,97381.88
2023-01-10T08:59:01.560Z,97380.25
2023-01-10T09:01:30.341Z,97377.81
2023-01-10T09:04:00.098Z,97387.81
2023-01-10T09:06:28.806Z,97395.13
2023-01-10T09:08:57.594Z,97396.75
2023-01-10T09:11:26.271Z,97404.06
2023-01-10T09:13:54.953Z,97395.94
2023-01-10T09:16:23.883Z,97395.66
2023-01-10T09:18:52.520Z,97395.41
2023-01-10T09:21:22.143Z,97402.16
2023-01-10T09:23:50.724Z,97405.94
2023-01-10T09:26:19.324Z,97418.16
2023-01-10T09:28:48.934Z,97437.91
2023-01-10T09:31:17.631Z,97448.19
2023-01-10T09:33:47.770Z,97456.00
2023-01-10T09:36:16.482Z,97461.19
2023-01-10T09:38:46.419Z,97457.38
2023-01-10T09:41:53.119Z,97467.66
2023-01-10T09:44:36.500Z,97463.34
2023-01-10T09:47:22.978Z,97470.34
2023-01-10T09:50:15.423Z,97471.72
2023-01-10T09:52:48.878Z,97476.84
2023-01-10T09:55:29.161Z,97479.28
2023-01-10T09:58:02.534Z,97465.50
2023-01-10T10:00:41.971Z,97481.19
2023-01-10T10:03:25.078Z,97486.34
2023-01-10T10:06:00.837Z,97484.97
2023-01-10T10:08:37.198Z,97476.31
2023-01-10T10:11:35.252Z,97471.75
2023-01-10T10:14:12.289Z,97470.63
2023-01-10T10:16:52.232Z,97469.81
2023-01-10T10:19:32.664Z,97471.44
2023-01-10T10:22:12.883Z,97477.94
2023-01-10T10:25:02.613Z,97473.63
2023-01-10T10:27:41.705Z,97461.44
2023-01-10T10:30:30.998Z,97458.44
2023-01-10T10:33:30.409Z,97459.00
2023-01-10T10:36:10.473Z,97454.63
2023-01-10T10:38:45.031Z,97451.38
2023-01-10T10:41:19.191Z,97460.56
2023-01-10T10:43:50.120Z,97467.88
2023-01-10T10:46:20.184Z,97473.56
2023-01-10T10:48:58.644Z,97483.34
2023-01-10T10:51:39.666Z,97479.00
2023-01-10T10:54:13.566Z,97492.00
2023-01-10T10:56:42.725Z,97483.09
2023-01-10T10:59:18.634Z,97480.09
2023-01-10T11:01:49.782Z,97483.91
2023-01-10T11:04:23.111Z,97486.59
2023-01-10T11:06:52.189Z,97477.38
2023-01-10T11:09:24.921Z,97488.50
2023-01-10T11:11:56.857Z,97481.44
2023-01-10T11:14:49.320Z,97474.13
2023-01-10T11:17:25.771Z,97497.41
2023-01-10T11:20:00.293Z,97484.94
2023-01-10T11:22:32.732Z,97484.94
2023-01-10T11:25:03.144Z,97477.88
2023-01-10T11:27:34.488Z,97488.44
2023-01-10T11:30:09.608Z,97487.91
2023-01-10T11:32:49.266Z,97485.69
2023-01-10T11:35:24.818Z,97499.22
2023-01-10T11:38:02.300Z,97495.41
2023-01-10T11:40:31.937Z,97497.31
2023-01-10T11:43:01.608Z,97500.31
2023-01-10T11:45:34.649Z,97496.25
2023-01-10T11:48:20.252Z,97499.72
2023-01-10T11:50:52.719Z,97496.72
2023-01-10T11:53:40.286Z,97492.94
2023-01-10T11:56:12.385Z,97500.53
2023-01-10T11:58:43.932Z,97499.47
2023-01-10T12:01:31.679Z,97494.81
2023-01-10T12:04:00.867Z,97499.69
2023-01-10T12:06:30.223Z,97491.28
2023-01-10T12:08:58.992Z,97481.75
2023-01-10T12:11:32.441Z,97485.44
2023-01-10T12:14:03.220Z,97476.06
2023-01-10T12:16:34.977Z,97476.59
2023-01-10T12:19:08.401Z,97475.91
2023-01-10T12:21:41.733Z,97479.56
2023-01-10T12:24:23.337Z,97487.16
2023-01-10T12:26:53.872Z,97486.22
2023-01-10T12:29:28.517Z,97486.09
2023-01-10T12:32:02.253Z,97483.41
2023-01-10T12:34:42.940Z,97487.50
2023-01-10T12:37:23.634Z,97492.44
2023-01-10T12:40:00.490Z,97499.63
2023-01-10T12:43:02.096Z,97494.38
2023-01-10T12:45:38.154Z,97505.75
2023-01-10T12:48:18.950Z,97504.66
2023-01-10T12:50:55.392Z,97519.38
2023-01-10T12:53:31.696Z,97510.53
2023-01-10T12:56:05.984Z,97516.47
2023-01-10T12:58:43.013Z,97522.72
2023-01-10T13:01:16.020Z,97521.34
2023-01-10T13:03:50.529Z,97513.94
2023-01-10T13:06:31.474Z,97513.69
2023-01-10T13:09:02.156Z,97513.50
2023-01-10T13:11:38.211Z,97515.44
2023-01-10T13:14:09.100Z,97519.25
2023-01-10T13:16:49.547Z,97524.97
2023-01-10T13:19:28.291Z,97526.88
2023-01-10T13:22:21.468Z,97531.50
2023-01-10T13:25:03.112Z,97541.53
2023-01-10T13:27:35.524Z,97538.31
2023-01-10T13:30:05.980Z,97542.91
2023-01-10T13:32:38.438Z,97542.66
2023-01-10T13:35:19.131Z,97545.63
2023-01-10T13:37:57.347Z,97540.47
2023-01-10T13:40:30.906Z,97547.25
2023-01-10T13:43:34.796Z,97538.28
2023-01-10T13:46:38.756Z,97535.31
2023-01-10T13:49:50.089Z,97529.63
2023-01-10T13:52:40.912Z,97541.00
2023-01-10T13:55:34.101Z,97536.69
2023-01-10T13:58:06.206Z,97543.97
2023-01-10T14:01:10.636Z,97535.31
2023-01-10T14:03:47.949Z,97545.88
2023-01-10T14:06:37.920Z,97548.06
2023-01-10T14:09:45.317Z,97548.06
2023-01-10T14:12:30.664Z,97548.59
2023-01-10T14:15:04.869Z,97551.28
2023-01-10T14:17:35.583Z,97549.16
2023-01-10T14:20:20.315Z,97540.50
2023-01-10T14:23:06.001Z,97546.19
2023-01-10T14:25:39.067Z,97547.50
2023-01-10T14:28:23.147Z,97547.50
2023-01-10T14:31:05.526Z,97551.03
2023-01-10T14:33:36.799Z,97553.44
2023-01-10T14:36:15.740Z,97549.69
2023-01-10T14:38:47.549Z,97555.94
2023-01-10T14:41:21.769Z,97548.06
2023-01-10T14:43:58.751Z,97555.09
2023-01-10T14:46:39.757Z,97552.66
2023-01-10T14:49:24.855Z,97546.97
2023-01-10T14:51:56.114Z,97540.75
2023-01-10T14:54:24.712Z,97538.06
2023-01-10T14:56:55.106Z,97541.31
2023-01-10T14:59:26.524Z,97533.72
2023-01-10T15:01:59.300Z,97526.41
2023-01-10T15:04:32.949Z,97524.22
2023-01-10T15:07:04.120Z,97518.81
2023-01-10T15:09:33.614Z,97523.16
2023-01-10T15:12:08.399Z,97532.09
2023-01-10T15:14:38.685Z,97533.19
2023-01-10T15:17:13.004Z,97536.13
2023-01-10T15:19:41.985Z,97535.88
2023-01-10T15:22:29.097Z,97542.91
2023-01-10T15:25:03.759Z,97530.72
2023-01-10T15:27:36.827Z,97533.41
2023-01-10T15:30:10.328Z,97525.03
2023-01-10T15:32:41.383Z,97523.41
2023-01-10T15:35:17.936Z,97514.75
2023-01-10T15:37:54.545Z,97523.13
2023-01-10T15:40:26.587Z,97523.13
2023-01-10T15:43:13.407Z,97527.47
2023-01-10T15:45:42.907Z,97539.09
2023-01-10T15:48:29.271Z,97535.84
2023-01-10T15:51:03.745Z,97528.81
2023-01-10T15:54:04.774Z,97534.75
2023-01-10T15:56:37.766Z,97536.13
2023-01-10T15:59:24.141Z,97537.19
2023-01-10T16:01:58.159Z,97533.94
2023-01-10T16:04:27.258Z,97534.22
2023-01-10T16:07:09.713Z,97540.69
2023-01-10T16:09:39.609Z,97526.38
2023-01-10T16:12:40.778Z,97519.31
2023-01-10T16:15:19.182Z,97519.56
2023-01-10T16:17:49.137Z,97515.53
2023-01-10T16:20:19.421Z,97513.91
2023-01-10T16:22:49.876Z,97522.28
2023-01-10T16:25:20.489Z,97515.50
2023-01-10T16:27:49.164Z,97513.34
2023-01-10T16:30:30.549Z,97514.16
2023-01-10T16:33:00.783Z,97507.94
2023-01-10T16:35:29.587Z,97510.94
2023-01-10T16:37:59.230Z,97504.72
2023-01-10T16:40:38.217Z,97505.00
2023-01-10T16:43:17.747Z,97502.00
2023-01-10T16:45:48.437Z,97501.19
2023-01-10T16:48:19.953Z,97492.78
2023-01-10T16:50:49.447Z,97493.78
2023-01-10T16:53:20.496Z,97485.28
2023-01-10T16:55:51.033Z,97482.75
2023-01-10T16:58:21.420Z,97483.41
2023-01-10T17:00:53.073Z,97485.66
2023-01-10T17:03:23.966Z,97483.91
2023-01-10T17:05:52.822Z,97483.50
2023-01-10T17:08:24.283Z,97481.22
2023-01-10T17:10:56.356Z,97480.28
2023-01-10T17:13:28.097Z,97485.44
2023-01-10T17:15:58.588Z,97479.22
2023-01-10T17:18:28.653Z,97478.56
2023-01-10T17:20:58.907Z,97475.59
2023-01-10T17:23:29.419Z,97481.38
2023-01-10T17:26:00.501Z,97473.63
2023-01-10T17:28:29.879Z,97476.97
2023-01-10T17:31:00.315Z,97472.25
2023-01-10T17:33:28.886Z,97478.25
2023-01-10T17:35:58.563Z,97477.06
2023-01-10T17:38:28.997Z,97483.94
2023-01-10T17:41:02.310Z,97482.47
2023-01-10T17:43:31.327Z,97479.09
2023-01-10T17:46:01.012Z,97473.41
2023-01-10T17:48:29.599Z,97478.47
2023-01-10T17:51:00.205Z,97473.66
2023-01-10T17:53:29.476Z,97472.50
2023-01-10T17:56:00.001Z,97475.63
2023-01-10T17:58:29.367Z,97476.38
2023-01-10T18:00:58.142Z,97471.56
2023-01-10T18:03:27.890Z,97463.34
2023-01-10T18:05:59.192Z,97468.13
2023-01-10T18:08:28.344Z,97458.22
2023-01-10T18:11:01.157Z,97459.59
2023-01-10T18:13:31.501Z,97461.81
2023-01-10T18:16:01.296Z,97463.50
2023-01-10T18:18:31.474Z,97465.19
2023-01-10T18:21:02.201Z,97468.88
2023-01-10T18:23:33.307Z,97469.44
2023-01-10T18:26:03.413Z,97467.56
2023-01-10T18:28:40.812Z,97466.69
2023-01-10T18:31:12.270Z,97464.88
2023-01-10T18:33:42.088Z,97476.03
2023-01-10T18:36:16.000Z,97467.56
2023-01-10T18:38:45.961Z,97471.81
2023-01-10T18:41:15.420Z,97460.81
2023-01-10T18:43:43.979Z,97457.31
2023-01-10T18:46:14.208Z,97466.59
2023-01-10T18:48:43.831Z,97473.19
2023-01-10T18:51:14.150Z,97462.88
2023-01-10T18:53:43.435Z,97456.72
2023-01-10T18:56:12.560Z,97456.00
2023-01-10T18:58:42.409Z,97451.44
2023-01-10T19:01:13.899Z,97453.41
2023-01-10T19:03:43.898Z,97446.06
2023-01-10T19:06:16.115Z,97439.97
2023-01-10T19:08:44.626Z,97435.81
2023-01-10T19:11:16.261Z,97451.03
2023-01-10T19:13:46.288Z,97445.50
2023-01-10T19:16:16.467Z,97446.47
2023-01-10T19:18:50.644Z,97440.53
2023-01-10T19:21:19.768Z,97438.31
2023-01-10T19:23:55.047Z,97449.56
2023-01-10T19:26:23.742Z,97446.22
2023-01-10T19:28:52.606Z,97438.31
2023-01-10T19:31:23.738Z,97443.81
2023-01-10T19:33:54.481Z,97437.88
2023-01-10T19:36:24.216Z,97440.72
2023-01-10T19:38:56.623Z,97435.44
2023-01-10T19:41:25.972Z,97437.88
2023-01-10T19:43:58.335Z,97436.84
2023-01-10T19:46:28.005Z,97428.69
2023-01-10T19:48:58.421Z,97428.09
2023-01-10T19:51:27.350Z,97420.03
2023-01-10T19:53:55.976Z,97420.41
2023-01-10T19:56:24.537Z,97418.44
2023-01-10T19:58:54.808Z,97419.72
2023-01-10T20:01:25.685Z,97428.97
2023-01-10T20:03:55.442Z,97431.03
2023-01-10T20:06:27.223Z,97429.66
2023-01-10T20:08:56.441Z,97425.28
2023-01-10T20:11:27.613Z,97424.53
2023-01-10T20:13:56.063Z,97420.56
2023-01-10T20:16:26.522Z,97430.59
2023-01-10T20:18:55.433Z,97436.16
2023-01-10T20:21:25.645Z,97425.56
2023-01-10T20:23:54.807Z,97434.59
2023-01-10T20:26:26.077Z,97432.81
2023-01-10T20:28:56.367Z,97422.72
2023-01-10T20:31:26.504Z,97420.03
2023-01-10T20:33:55.284Z,97417.75
2023-01-10T20:36:26.491Z,97414.25
2023-01-10T20:38:55.520Z,97408.56
2023-01-10T20:41:26.645Z,97409.69
2023-01-10T20:43:56.716Z,97401.16
2023-01-10T20:46:27.237Z,97406.75
2023-01-10T20:48:57.556Z,97414.56
2023-01-10T20:51:31.665Z,97404.16
2023-01-10T20:54:01.055Z,97399.69
2023-01-10T20:56:32.149Z,97389.38
2023-01-10T20:59:00.841Z,97386.53
2023-01-10T21:01:35.417Z,97376.03
2023-01-10T21:04:06.129Z,97382.44
2023-01-10T21:06:37.345Z,97376.75
2023-01-10T21:09:06.873Z,97388.66
2023-01-10T21:11:47.787Z,97381.56
2023-01-10T21:14:24.842Z,97373.00
2023-01-10T21:16:53.393Z,97369.84
2023-01-10T21:19:22.064Z,97364.41
2023-01-10T21:21:51.621Z,97369.69
2023-01-10T21:24:22.898Z,97364.06
2023-01-10T21:26:51.524Z,97366.44
2023-01-10T21:29:20.155Z,97371.56
2023-01-10T21:31:48.706Z,97375.13
2023-01-10T21:34:17.318Z,97373.84
2023-01-10T21:36:45.942Z,97365.88
2023-01-10T21:39:15.650Z,97370.09
2023-01-10T21:42:01.465Z,97371.81
2023-01-10T21:44:30.070Z,97367.56
2023-01-10T21:46:58.677Z,97366.75
2023-01-10T21:49:27.471Z,97359.75
2023-01-10T21:51:57.766Z,97353.88
2023-01-10T21:54:27.463Z,97361.47
2023-01-10T21:56:56.059Z,97355.91
2023-01-10T21:59:25.504Z,97351.16
2023-01-10T22:01:54.079Z,97351.56
2023-01-10T22:04:22.672Z,97351.63
2023-01-10T22:06:51.358Z,97353.66
2023-01-10T22:09:20.233Z,97342.91
2023-01-10T22:11:49.919Z,97343.44
2023-01-10T22:14:18.596Z,97354.81
2023-01-10T22:16:47.201Z,97354.56
2023-01-10T22:19:15.816Z,97350.41
2023-01-10T22:21:44.057Z,97356.69
2023-01-10T22:24:12.936Z,97351.59
2023-01-10T22:26:41.122Z,97346.28
2023-01-10T22:29:10.968Z,97340.41
2023-01-10T22:31:41.300Z,97328.06
2023-01-10T22:34:10.710Z,97330.53
2023-01-10T22:36:39.610Z,97323.84
2023-01-10T22:39:08.948Z,97320.16
2023-01-10T22:41:39.011Z,97322.66
2023-01-10T22:44:09.165Z,97316.47
2023-01-10T22:46:38.791Z,97318.06
2023-01-10T22:49:07.359Z,97319.72
2023-01-10T22:51:37.007Z,97314.31
2023-01-10T22:54:06.089Z,97317.78
2023-01-10T22:56:34.836Z,97315.06
2023-01-10T22:59:03.415Z,97316.13
2023-01-10T23:01:32.157Z,97298.06
2023-01-10T23:04:02.050Z,97299.69
2023-01-10T23:06:30.768Z,97314.81
2023-01-10T23:08:59.457Z,97304.41
2023-01-10T23:11:28.174Z,97302.34
2023-01-10T23:13:56.813Z,97301.00
2023-01-10T23:16:28.713Z,97291.88
2023-01-10T23:18:58.135Z,97297.00
2023-01-10T23:21:29.847Z,97297.78
2023-01-10T23:23:58.451Z,97284.38
2023-01-10T23:26:26.726Z,97287.66
2023-01-10T23:28:55.288Z,97279.56
2023-01-10T23:31:27.041Z,97284.16
2023-01-10T23:33:55.711Z,97286.59
2023-01-10T23:36:24.724Z,97284.75
2023-01-10T23:38:54.341Z,97280.44
2023-01-10T23:41:22.612Z,97288.28
2023-01-10T23:43:51.575Z,97279.13
2023-01-10T23:46:20.362Z,97274.81
2023-01-10T23:48:48.986Z,97275.59
2023-01-10T23:51:18.669Z,97280.75
2023-01-10T23:53:47.006Z,97278.63
2023-01-10T23:56:17.184Z,97273.28
2023-01-10T23:58:45.702Z,97274.53
